createdAt,value
2018-10-19T00:01:48.063Z,9.60
2018-10-19T00:04:16.606Z,9.50
2018-10-19T00:06:45.171Z,9.60
2018-10-19T00:09:13.753Z,9.50
2018-10-19T00:11:42.287Z,9.50
2018-10-19T00:14:10.819Z,9.50
2018-10-19T00:16:39.383Z,9.60
2018-10-19T00:19:07.920Z,9.50
2018-10-19T00:21:36.494Z,9.50
2018-10-19T00:24:05.337Z,9.50
2018-10-19T00:26:33.962Z,9.40
2018-10-19T00:29:02.508Z,9.40
2018-10-19T00:31:31.062Z,9.40
2018-10-19T00:33:59.590Z,9.40
2018-10-19T00:36:28.211Z,9.40
2018-10-19T00:38:56.788Z,9.40
2018-10-19T00:41:25.371Z,9.40
2018-10-19T00:43:53.927Z,9.30
2018-10-19T00:46:22.497Z,9.30
2018-10-19T00:48:51.021Z,9.30
2018-10-19T00:51:19.617Z,9.30
2018-10-19T00:53:48.134Z,9.30
2018-10-19T00:56:16.651Z,9.20
2018-10-19T00:58:45.210Z,9.30
2018-10-19T01:01:13.711Z,9.20
2018-10-19T01:03:42.266Z,9.20
2018-10-19T01:06:10.901Z,9.20
2018-10-19T01:08:39.634Z,9.20
2018-10-19T01:11:08.204Z,9.20
2018-10-19T01:13:36.736Z,9.10
2018-10-19T01:16:05.520Z,9.20
2018-10-19T01:18:34.090Z,9.20
2018-10-19T01:21:02.694Z,9.20
2018-10-19T01:23:31.213Z,9.10
2018-10-19T01:25:59.786Z,9.10
2018-10-19T01:28:28.389Z,9.10
2018-10-19T01:30:56.890Z,9.10
2018-10-19T01:33:25.427Z,9.10
2018-10-19T01:35:54.031Z,9.10
2018-10-19T01:38:22.577Z,9.00
2018-10-19T01:40:51.109Z,9.00
2018-10-19T01:43:19.850Z,9.00
2018-10-19T01:45:53.700Z,9.00
2018-10-19T01:48:22.350Z,9.00
2018-10-19T01:50:50.887Z,9.00
2018-10-19T01:53:19.444Z,9.00
2018-10-19T01:55:48.047Z,9.00
2018-10-19T01:58:16.821Z,8.90
2018-10-19T02:00:45.416Z,8.90
2018-10-19T02:03:14.008Z,8.90
2018-10-19T02:05:42.586Z,8.90
2018-10-19T02:08:11.791Z,8.90
2018-10-19T02:10:40.701Z,8.90
2018-10-19T02:13:10.079Z,8.80
2018-10-19T02:15:38.992Z,8.80
2018-10-19T02:18:07.619Z,8.80
2018-10-19T02:20:36.182Z,8.80
2018-10-19T02:23:04.774Z,8.80
2018-10-19T02:25:33.338Z,8.80
2018-10-19T02:28:02.007Z,8.80
2018-10-19T02:30:30.546Z,8.80
2018-10-19T02:32:59.207Z,8.80
2018-10-19T02:35:27.659Z,8.80
2018-10-19T02:37:56.210Z,8.80
2018-10-19T02:40:24.810Z,8.80
2018-10-19T02:42:53.330Z,8.80
2018-10-19T02:45:21.900Z,8.80
2018-10-19T02:47:50.520Z,8.80
2018-10-19T02:50:19.071Z,8.80
2018-10-19T02:52:47.658Z,8.80
2018-10-19T02:55:16.210Z,8.80
2018-10-19T02:57:44.847Z,8.80
2018-10-19T03:00:13.503Z,8.80
2018-10-19T03:02:42.491Z,8.80
2018-10-19T03:05:11.062Z,8.80
2018-10-19T03:07:39.867Z,8.70
2018-10-19T03:10:09.034Z,8.80
2018-10-19T03:12:37.616Z,8.80
2018-10-19T03:15:07.738Z,8.70
2018-10-19T03:17:36.222Z,8.70
2018-10-19T03:20:06.170Z,8.70
2018-10-19T03:22:35.322Z,8.70
2018-10-19T03:25:03.862Z,8.60
2018-10-19T03:27:32.451Z,8.70
2018-10-19T03:30:00.984Z,8.60
2018-10-19T03:32:29.550Z,8.60
2018-10-19T03:34:58.130Z,8.60
2018-10-19T03:37:26.663Z,8.60
2018-10-19T03:39:55.260Z,8.60
2018-10-19T03:42:23.817Z,8.50
2018-10-19T03:44:52.487Z,8.50
2018-10-19T03:47:20.996Z,8.50
2018-10-19T03:49:49.526Z,8.50
2018-10-19T03:52:18.037Z,8.50
2018-10-19T03:54:46.583Z,8.40
2018-10-19T03:57:15.168Z,8.40
2018-10-19T03:59:43.710Z,8.40
2018-10-19T04:02:12.194Z,8.40
2018-10-19T04:04:40.754Z,8.40
2018-10-19T04:07:09.263Z,8.30
2018-10-19T04:09:38.295Z,8.30
2018-10-19T04:12:06.841Z,8.30
2018-10-19T04:14:35.403Z,8.30
2018-10-19T04:17:03.978Z,8.20
2018-10-19T04:19:32.518Z,8.20
2018-10-19T04:22:01.061Z,8.20
2018-10-19T04:24:30.831Z,8.20
2018-10-19T04:26:59.379Z,8.20
2018-10-19T04:29:27.938Z,8.20
2018-10-19T04:31:56.451Z,8.20
2018-10-19T04:34:24.979Z,8.20
2018-10-19T04:37:03.016Z,8.20
2018-10-19T04:39:31.611Z,8.20
2018-10-19T04:42:00.293Z,8.20
2018-10-19T04:44:28.891Z,8.20
2018-10-19T04:46:57.784Z,8.20
2018-10-19T04:49:26.511Z,8.20
2018-10-19T04:51:55.047Z,8.20
2018-10-19T04:54:23.883Z,8.20
2018-10-19T04:56:52.530Z,8.20
2018-10-19T04:59:21.063Z,8.20
2018-10-19T05:01:49.642Z,8.20
2018-10-19T05:04:18.162Z,8.10
2018-10-19T05:06:46.998Z,8.10
2018-10-19T05:09:15.367Z,8.10
2018-10-19T05:11:43.954Z,8.10
2018-10-19T05:14:12.599Z,8.10
2018-10-19T05:16:41.081Z,8.10
2018-10-19T05:19:09.604Z,8.10
2018-10-19T05:21:38.423Z,8.10
2018-10-19T05:24:06.959Z,8.10
2018-10-19T05:26:35.750Z,8.00
2018-10-19T05:29:04.345Z,8.00
2018-10-19T05:31:32.854Z,8.00
2018-10-19T05:34:01.391Z,8.00
2018-10-19T05:36:29.967Z,8.00
2018-10-19T05:38:58.528Z,8.00
2018-10-19T05:41:27.064Z,8.00
2018-10-19T05:43:55.707Z,8.00
2018-10-19T05:46:24.246Z,8.00
2018-10-19T05:48:52.818Z,8.00
2018-10-19T05:51:21.347Z,8.10
2018-10-19T05:53:49.898Z,8.10
2018-10-19T05:56:18.523Z,8.10
2018-10-19T05:58:47.071Z,8.10
2018-10-19T06:01:15.610Z,8.10
2018-10-19T06:03:44.205Z,8.10
2018-10-19T06:06:12.910Z,8.10
2018-10-19T06:08:41.510Z,8.20
2018-10-19T06:11:10.184Z,8.20
2018-10-19T06:13:38.681Z,8.20
2018-10-19T06:16:07.155Z,8.30
2018-10-19T06:18:38.206Z,8.30
2018-10-19T06:21:06.817Z,8.40
2018-10-19T06:23:35.328Z,8.40
2018-10-19T06:26:03.929Z,8.50
2018-10-19T06:28:32.690Z,8.60
2018-10-19T06:31:01.400Z,8.60
2018-10-19T06:33:30.099Z,8.70
2018-10-19T06:35:58.616Z,8.80
2018-10-19T06:38:27.120Z,8.80
2018-10-19T06:40:55.671Z,8.90
2018-10-19T06:43:24.202Z,9.00
2018-10-19T06:45:52.802Z,9.10
2018-10-19T06:48:21.322Z,9.20
2018-10-19T06:50:49.936Z,9.20
2018-10-19T06:53:18.489Z,9.30
2018-10-19T06:55:47.181Z,9.40
2018-10-19T06:58:15.792Z,9.50
2018-10-19T07:00:44.372Z,9.60
2018-10-19T07:03:12.908Z,9.70
2018-10-19T07:05:41.650Z,9.80
2018-10-19T07:08:10.185Z,9.90
2018-10-19T07:10:40.379Z,9.90
2018-10-19T07:13:08.940Z,10.10
2018-10-19T07:15:37.577Z,10.20
2018-10-19T07:18:06.178Z,10.30
2018-10-19T07:20:34.865Z,10.40
2018-10-19T07:23:03.413Z,10.60
2018-10-19T07:25:32.016Z,10.70
2018-10-19T07:28:00.536Z,10.90
2018-10-19T07:30:29.062Z,11.00
2018-10-19T07:32:57.678Z,11.10
2018-10-19T07:35:26.211Z,11.20
2018-10-19T07:37:54.803Z,11.40
2018-10-19T07:40:23.330Z,11.50
2018-10-19T07:42:51.870Z,11.70
2018-10-19T07:45:20.450Z,11.80
2018-10-19T07:47:49.158Z,11.90
2018-10-19T07:50:17.760Z,12.00
2018-10-19T07:52:46.194Z,12.10
2018-10-19T07:55:14.738Z,12.30
2018-10-19T07:57:43.307Z,12.40
2018-10-19T08:00:11.924Z,12.50
2018-10-19T08:02:40.474Z,12.60
2018-10-19T08:05:09.767Z,12.80
2018-10-19T08:07:38.362Z,12.90
2018-10-19T08:10:08.201Z,13.00
2018-10-19T08:12:36.782Z,13.20
2018-10-19T08:15:06.254Z,13.30
2018-10-19T08:17:34.818Z,13.40
2018-10-19T08:20:03.593Z,13.60
2018-10-19T08:22:32.085Z,13.70
2018-10-19T08:25:00.636Z,13.80
2018-10-19T08:27:29.365Z,14.00
2018-10-19T08:29:57.839Z,14.10
2018-10-19T08:32:26.520Z,14.30
2018-10-19T08:34:55.034Z,14.40
2018-10-19T08:37:23.545Z,14.50
2018-10-19T08:39:52.464Z,14.60
2018-10-19T08:42:20.991Z,14.70
2018-10-19T08:44:49.666Z,14.80
2018-10-19T08:47:18.653Z,14.90
2018-10-19T08:49:47.178Z,15.00
2018-10-19T08:52:15.682Z,15.10
2018-10-19T08:54:44.299Z,15.20
2018-10-19T08:57:12.959Z,15.30
2018-10-19T08:59:41.420Z,15.40
2018-10-19T09:02:10.008Z,15.40
2018-10-19T09:04:38.559Z,15.50
2018-10-19T09:07:07.188Z,15.60
2018-10-19T09:09:35.708Z,15.60
2018-10-19T09:12:04.464Z,15.70
2018-10-19T09:14:44.124Z,15.80
2018-10-19T09:17:12.773Z,15.80
2018-10-19T09:19:41.314Z,15.80
2018-10-19T09:22:10.153Z,15.80
2018-10-19T09:24:38.692Z,15.90
2018-10-19T09:27:07.312Z,16.00
2018-10-19T09:29:35.923Z,16.10
2018-10-19T09:32:04.444Z,16.20
2018-10-19T09:34:33.013Z,16.20
2018-10-19T09:37:02.423Z,16.30
2018-10-19T09:39:30.896Z,16.30
2018-10-19T09:41:59.538Z,16.40
2018-10-19T09:44:28.066Z,16.50
2018-10-19T09:46:56.678Z,16.50
2018-10-19T09:49:25.240Z,16.60
2018-10-19T09:51:53.822Z,16.50
2018-10-19T09:54:22.455Z,16.60
2018-10-19T09:56:51.024Z,16.70
2018-10-19T09:59:19.518Z,16.70
2018-10-19T10:01:48.138Z,16.80
2018-10-19T10:04:16.614Z,16.90
2018-10-19T10:06:45.193Z,16.90
2018-10-19T10:09:15.204Z,17.00
2018-10-19T10:11:43.882Z,17.00
2018-10-19T10:14:12.474Z,17.00
2018-10-19T10:16:41.014Z,17.10
2018-10-19T10:19:09.658Z,17.10
2018-10-19T10:21:38.157Z,17.10
2018-10-19T10:24:07.617Z,17.20
2018-10-19T10:26:36.308Z,17.30
2018-10-19T10:29:05.226Z,17.30
2018-10-19T10:31:33.768Z,17.40
2018-10-19T10:34:04.219Z,17.40
2018-10-19T10:36:32.750Z,17.50
2018-10-19T10:39:02.841Z,17.40
2018-10-19T10:41:31.155Z,17.50
2018-10-19T10:43:59.743Z,17.60
2018-10-19T10:46:28.314Z,17.60
2018-10-19T10:49:08.271Z,17.60
2018-10-19T10:51:40.437Z,17.60
2018-10-19T10:54:20.251Z,17.70
2018-10-19T10:56:51.440Z,17.80
2018-10-19T10:59:30.335Z,17.70
2018-10-19T11:02:09.436Z,17.80
2018-10-19T11:04:49.278Z,17.80
2018-10-19T11:07:31.016Z,17.80
2018-10-19T11:10:11.451Z,17.80
2018-10-19T11:12:48.530Z,17.90
2018-10-19T11:15:28.550Z,17.80
2018-10-19T11:18:08.760Z,17.80
2018-10-19T11:20:37.343Z,17.80
2018-10-19T11:23:16.859Z,17.90
2018-10-19T11:25:55.477Z,18.10
2018-10-19T11:28:34.201Z,18.00
2018-10-19T11:31:14.035Z,18.10
2018-10-19T11:33:53.253Z,18.20
2018-10-19T11:36:32.744Z,18.10
2018-10-19T11:39:14.910Z,18.10
2018-10-19T11:41:55.376Z,18.10
2018-10-19T11:44:33.494Z,18.10
2018-10-19T11:47:14.110Z,18.20
2018-10-19T11:49:55.350Z,18.20
2018-10-19T11:52:36.556Z,18.20
2018-10-19T11:55:05.291Z,18.20
2018-10-19T11:57:33.859Z,18.20
2018-10-19T12:00:02.436Z,18.20
2018-10-19T12:02:31.879Z,18.20
2018-10-19T12:05:00.417Z,18.20
2018-10-19T12:07:28.969Z,18.30
2018-10-19T12:09:57.547Z,18.30
2018-10-19T12:12:26.119Z,18.20
2018-10-19T12:14:54.702Z,18.30
2018-10-19T12:17:23.231Z,18.30
2018-10-19T12:19:51.753Z,18.40
2018-10-19T12:22:20.368Z,18.40
2018-10-19T12:24:48.895Z,18.50
2018-10-19T12:27:18.106Z,18.50
2018-10-19T12:29:47.019Z,18.40
2018-10-19T12:32:15.583Z,18.40
2018-10-19T12:34:44.171Z,18.40
2018-10-19T12:37:12.788Z,18.50
2018-10-19T12:39:41.943Z,18.50
2018-10-19T12:42:10.452Z,18.60
2018-10-19T12:44:42.296Z,18.50
2018-10-19T12:47:22.235Z,18.50
2018-10-19T12:49:50.862Z,18.60
2018-10-19T12:52:19.413Z,18.60
2018-10-19T12:54:47.997Z,18.70
2018-10-19T12:57:16.681Z,18.70
2018-10-19T12:59:45.082Z,18.70
2018-10-19T13:02:14.462Z,18.70
2018-10-19T13:04:43.027Z,18.70
2018-10-19T13:07:11.604Z,18.70
2018-10-19T13:09:40.289Z,18.60
2018-10-19T13:12:08.787Z,18.70
2018-10-19T13:14:37.320Z,18.70
2018-10-19T13:17:07.375Z,18.70
2018-10-19T13:19:35.943Z,18.80
2018-10-19T13:22:05.992Z,18.90
2018-10-19T13:24:34.568Z,18.80
2018-10-19T13:27:03.186Z,18.80
2018-10-19T13:29:31.802Z,18.80
2018-10-19T13:32:00.362Z,18.70
2018-10-19T13:34:28.951Z,18.70
2018-10-19T13:36:57.588Z,18.70
2018-10-19T13:39:26.147Z,18.60
2018-10-19T13:41:54.725Z,18.60
2018-10-19T13:44:23.284Z,18.50
2018-10-19T13:46:52.632Z,18.40
2018-10-19T13:49:21.114Z,18.50
2018-10-19T13:51:49.685Z,18.50
2018-10-19T13:54:18.238Z,18.40
2018-10-19T13:56:46.826Z,18.50
2018-10-19T13:59:15.409Z,18.60
2018-10-19T14:01:43.940Z,18.50
2018-10-19T14:04:12.494Z,18.50
2018-10-19T14:06:41.098Z,18.60
2018-10-19T14:09:10.500Z,18.50
2018-10-19T14:11:39.717Z,18.40
2018-10-19T14:14:08.277Z,18.40
2018-10-19T14:16:36.796Z,18.40
2018-10-19T14:19:05.511Z,18.40
2018-10-19T14:21:33.990Z,18.50
2018-10-19T14:24:03.544Z,18.50
2018-10-19T14:26:32.063Z,18.40
2018-10-19T14:29:00.608Z,18.40
2018-10-19T14:31:29.133Z,18.30
2018-10-19T14:33:57.767Z,18.30
2018-10-19T14:36:26.298Z,18.30
2018-10-19T14:38:54.891Z,18.20
2018-10-19T14:41:23.510Z,18.20
2018-10-19T14:43:52.207Z,18.20
2018-10-19T14:46:20.778Z,18.20
2018-10-19T14:48:49.413Z,18.10
2018-10-19T14:51:17.896Z,18.10
2018-10-19T14:53:46.458Z,18.10
2018-10-19T14:56:14.974Z,18.00
2018-10-19T14:58:43.519Z,17.90
2018-10-19T15:01:12.072Z,17.90
2018-10-19T15:03:40.660Z,17.80
2018-10-19T15:06:09.244Z,17.70
2018-10-19T15:08:37.788Z,17.70
2018-10-19T15:11:06.593Z,17.60
2018-10-19T15:13:34.968Z,17.50
2018-10-19T15:16:03.534Z,17.40
2018-10-19T15:18:32.165Z,17.30
2018-10-19T15:21:00.659Z,17.30
2018-10-19T15:23:29.194Z,17.20
2018-10-19T15:25:57.778Z,17.20
2018-10-19T15:28:26.286Z,17.10
2018-10-19T15:30:54.876Z,17.00
2018-10-19T15:33:23.389Z,16.90
2018-10-19T15:35:51.941Z,16.80
2018-10-19T15:38:20.458Z,16.70
2018-10-19T15:40:49.058Z,16.60
2018-10-19T15:43:17.601Z,16.50
2018-10-19T15:45:46.235Z,16.40
2018-10-19T15:48:14.855Z,16.30
2018-10-19T15:50:43.332Z,16.20
2018-10-19T15:53:11.876Z,16.20
2018-10-19T15:55:40.454Z,16.10
2018-10-19T15:58:08.987Z,16.00
2018-10-19T16:00:37.598Z,15.90
2018-10-19T16:03:06.148Z,15.90
2018-10-19T16:05:34.648Z,15.80
2018-10-19T16:08:03.236Z,15.70
2018-10-19T16:10:31.760Z,15.70
2018-10-19T16:13:00.329Z,15.60
2018-10-19T16:15:28.863Z,15.50
2018-10-19T16:17:57.477Z,15.40
2018-10-19T16:20:25.977Z,15.30
2018-10-19T16:22:54.568Z,15.30
2018-10-19T16:25:23.088Z,15.10
2018-10-19T16:27:51.696Z,15.10
2018-10-19T16:30:20.297Z,15.00
2018-10-19T16:32:48.836Z,14.90
2018-10-19T16:35:17.356Z,14.80
2018-10-19T16:37:45.899Z,14.70
2018-10-19T16:40:14.386Z,14.60
2018-10-19T16:42:42.995Z,14.50
2018-10-19T16:45:11.629Z,14.40
2018-10-19T16:47:40.242Z,14.40
2018-10-19T16:50:08.790Z,14.30
2018-10-19T16:52:37.549Z,14.20
2018-10-19T16:55:06.328Z,14.20
2018-10-19T16:57:34.907Z,14.10
2018-10-19T17:00:03.665Z,14.00
2018-10-19T17:02:32.161Z,14.00
2018-10-19T17:05:00.846Z,13.90
2018-10-19T17:07:29.423Z,13.80
2018-10-19T17:09:57.987Z,13.80
2018-10-19T17:12:26.520Z,13.70
2018-10-19T17:14:56.701Z,13.70
2018-10-19T17:17:25.398Z,13.60
2018-10-19T17:19:53.974Z,13.50
2018-10-19T17:22:22.490Z,13.50
2018-10-19T17:24:51.522Z,13.50
2018-10-19T17:27:20.705Z,13.50
2018-10-19T17:29:49.294Z,13.40
2018-10-19T17:32:17.832Z,13.40
2018-10-19T17:34:46.422Z,13.30
2018-10-19T17:37:15.000Z,13.20
2018-10-19T17:39:43.612Z,13.20
2018-10-19T17:42:12.185Z,13.10
2018-10-19T17:44:40.737Z,13.10
2018-10-19T17:47:10.478Z,13.00
2018-10-19T17:49:39.685Z,13.00
2018-10-19T17:52:08.351Z,13.00
2018-10-19T17:54:36.980Z,13.00
2018-10-19T17:57:05.648Z,12.90
2018-10-19T17:59:34.235Z,12.90
2018-10-19T18:02:02.807Z,12.90
2018-10-19T18:04:31.335Z,12.80
2018-10-19T18:06:59.902Z,12.80
2018-10-19T18:09:28.465Z,12.80
2018-10-19T18:11:57.034Z,12.80
2018-10-19T18:14:25.543Z,12.70
2018-10-19T18:16:54.152Z,12.70
2018-10-19T18:19:22.668Z,12.60
2018-10-19T18:21:51.366Z,12.60
2018-10-19T18:24:19.823Z,12.50
2018-10-19T18:26:48.409Z,12.50
2018-10-19T18:29:16.979Z,12.50
2018-10-19T18:31:45.578Z,12.40
2018-10-19T18:34:14.118Z,12.40
2018-10-19T18:36:42.706Z,12.40
2018-10-19T18:39:13.108Z,12.30
2018-10-19T18:41:42.219Z,12.30
2018-10-19T18:44:10.854Z,12.20
2018-10-19T18:46:39.490Z,12.20
2018-10-19T18:49:08.671Z,12.10
2018-10-19T18:51:37.564Z,12.00
2018-10-19T18:54:06.243Z,12.00
2018-10-19T18:56:34.822Z,11.90
2018-10-19T18:59:03.778Z,11.90
2018-10-19T19:01:32.353Z,11.80
2018-10-19T19:04:03.222Z,11.70
2018-10-19T19:06:31.765Z,11.70
2018-10-19T19:09:00.336Z,11.70
2018-10-19T19:11:28.863Z,11.60
2018-10-19T19:13:57.509Z,11.60
2018-10-19T19:16:29.230Z,11.50
2018-10-19T19:18:57.815Z,11.50
2018-10-19T19:21:26.457Z,11.50
2018-10-19T19:24:00.318Z,11.40
2018-10-19T19:26:28.948Z,11.40
2018-10-19T19:28:57.958Z,11.40
2018-10-19T19:31:26.450Z,11.40
2018-10-19T19:34:00.205Z,11.30
2018-10-19T19:36:28.704Z,11.30
2018-10-19T19:38:57.286Z,11.20
2018-10-19T19:41:31.092Z,11.20
2018-10-19T19:43:59.739Z,11.20
2018-10-19T19:46:28.285Z,11.10
2018-10-19T19:49:03.730Z,11.10
2018-10-19T19:51:32.219Z,11.10
2018-10-19T19:54:00.770Z,11.00
2018-10-19T19:56:29.296Z,11.00
2018-10-19T19:58:58.010Z,11.00
2018-10-19T20:01:26.552Z,11.00
2018-10-19T20:03:55.110Z,10.90
2018-10-19T20:06:23.778Z,10.90
2018-10-19T20:08:52.324Z,10.90
2018-10-19T20:11:20.958Z,10.80
2018-10-19T20:13:49.519Z,10.80
2018-10-19T20:16:18.122Z,10.80
2018-10-19T20:18:46.705Z,10.80
2018-10-19T20:21:15.285Z,10.80
2018-10-19T20:23:43.824Z,10.70
2018-10-19T20:26:13.419Z,10.70
2018-10-19T20:28:41.921Z,10.70
2018-10-19T20:31:10.492Z,10.70
2018-10-19T20:33:39.060Z,10.60
2018-10-19T20:36:07.690Z,10.60
2018-10-19T20:38:36.232Z,10.50
2018-10-19T20:41:05.342Z,10.50
2018-10-19T20:43:33.826Z,10.50
2018-10-19T20:46:02.467Z,10.50
2018-10-19T20:48:31.043Z,10.50
2018-10-19T20:50:59.614Z,10.50
2018-10-19T20:53:28.258Z,10.50
2018-10-19T20:55:56.890Z,10.50
2018-10-19T20:58:25.472Z,10.50
2018-10-19T21:00:54.073Z,10.50
2018-10-19T21:03:22.691Z,10.40
2018-10-19T21:05:51.325Z,10.40
2018-10-19T21:08:19.923Z,10.30
2018-10-19T21:10:48.515Z,10.30
2018-10-19T21:13:17.136Z,10.30
2018-10-19T21:15:45.682Z,10.30
2018-10-19T21:18:14.280Z,10.30
2018-10-19T21:20:42.784Z,10.20
2018-10-19T21:23:11.625Z,10.20
2018-10-19T21:25:40.782Z,10.20
2018-10-19T21:28:09.452Z,10.10
2018-10-19T21:30:38.066Z,10.10
2018-10-19T21:33:06.610Z,10.00
2018-10-19T21:35:35.176Z,10.00
2018-10-19T21:38:03.875Z,10.00
2018-10-19T21:40:32.468Z,10.00
2018-10-19T21:43:01.024Z,9.90
2018-10-19T21:45:29.749Z,9.90
2018-10-19T21:47:58.277Z,9.90
2018-10-19T21:50:26.941Z,9.90
2018-10-19T21:52:55.473Z,9.90
2018-10-19T21:55:24.061Z,9.80
2018-10-19T21:57:52.605Z,9.80
2018-10-19T22:00:21.254Z,9.80
2018-10-19T22:02:49.799Z,9.80
2018-10-19T22:05:18.389Z,9.80
2018-10-19T22:07:47.003Z,9.70
2018-10-19T22:10:15.540Z,9.70
2018-10-19T22:12:44.118Z,9.70
2018-10-19T22:15:12.695Z,9.70
2018-10-19T22:17:41.208Z,9.70
2018-10-19T22:20:10.300Z,9.60
2018-10-19T22:22:38.825Z,9.60
2018-10-19T22:25:07.544Z,9.60
2018-10-19T22:27:36.060Z,9.60
2018-10-19T22:30:05.968Z,9.60
2018-10-19T22:32:34.503Z,9.50
2018-10-19T22:35:03.133Z,9.50
2018-10-19T22:37:31.702Z,9.50
2018-10-19T22:40:00.262Z,9.40
2018-10-19T22:42:28.871Z,9.40
2018-10-19T22:44:57.442Z,9.40
2018-10-19T22:47:25.995Z,9.50
2018-10-19T22:49:54.547Z,9.50
2018-10-19T22:52:23.133Z,9.50
2018-10-19T22:54:51.934Z,9.50
2018-10-19T22:57:20.578Z,9.40
2018-10-19T22:59:49.163Z,9.40
2018-10-19T23:02:17.755Z,9.40
2018-10-19T23:04:46.271Z,9.30
2018-10-19T23:07:14.911Z,9.30
2018-10-19T23:09:43.474Z,9.30
2018-10-19T23:12:12.002Z,9.30
2018-10-19T23:14:40.540Z,9.30
2018-10-19T23:17:09.182Z,9.20
2018-10-19T23:19:37.785Z,9.20
2018-10-19T23:22:07.783Z,9.20
2018-10-19T23:24:36.362Z,9.20
2018-10-19T23:27:05.215Z,9.10
2018-10-19T23:29:33.769Z,9.10
2018-10-19T23:32:02.305Z,9.10
2018-10-19T23:34:30.925Z,9.10
2018-10-19T23:36:59.502Z,9.10
2018-10-19T23:39:28.077Z,9.00
2018-10-19T23:41:56.629Z,9.00
2018-10-19T23:44:25.212Z,9.00
2018-10-19T23:46:53.806Z,9.00
2018-10-19T23:49:22.400Z,9.00
2018-10-19T23:51:50.943Z,9.00
2018-10-19T23:54:19.523Z,8.90
2018-10-19T23:56:48.057Z,8.90
2018-10-19T23:59:16.657Z,8.90
